ADDS METAR Data INFO
IDs: Format: Raw Decoded Include TAF

Data at: 0946 UTC 25 Jun 2018

KMIC 250853Z 04005KT 10SM CLR 17/14 A3001 RMK AO2 SLP158 T01720139 55010 $
KMIC 250753Z 08007KT 10SM CLR 18/14 A3001 RMK AO2 SLP157 T01830139 $
KMIC 250653Z 04005KT 10SM CLR 19/14 A3002 RMK AO2 SLP161 T01890144 $
KMIC 250553Z 06005KT 10SM FEW065 19/14 A3004 RMK AO2 SLP167 T01940144 10256 20194 402720161 51012 $
KMIC 250453Z 04004KT 10SM FEW060 OVC080 21/14 A3003 RMK AO2 SLP164 T02060144 $
KMIC 250353Z 06008KT 10SM BKN075 21/15 A3001 RMK AO2 SLP159 T02110150 $
KMIC 250253Z 05007KT 10SM CLR 22/16 A3000 RMK AO2 SLP155 T02220156 53016 $
KMIC 250153Z 04010KT 10SM CLR 23/17 A2997 RMK AO2 SLP145 T02330167 $
KMIC 250053Z 07007KT 10SM CLR 26/17 A2996 RMK AO2 SLP139 T02560172 $
KMIC 242353Z 08006KT 10SM SCT070 BKN080 26/17 A2995 RMK AO2 SLP139 60000 T02560172 10272 20233 53002 $
KMIC 242253Z 08007KT 10SM SCT050 26/17 A2994 RMK AO2 SLP134 T02610167 $
KMIC 242153Z 07010KT 10SM CLR 27/17 A2995 RMK AO2 SLP138 T02670172 $
KMIC 242053Z AUTO 07009KT 10SM SCT047 BKN060 25/18 A2995 RMK AO2 SLP138 60000 T02500178 56000 $
KMIC 241953Z 07009KT 10SM CLR 25/17 A2995 RMK AO2 RAE1857 SLP139 P0000 T02500172 $
KMIC 241853Z 07011G22KT 10SM -RA SCT038 SCT080 BKN100 23/18 A2991 RMK AO2 LTG DSNT E RAB09 SLP126 P0000 T02330178 $
KMIC 241753Z VRB05KT 10SM FEW030 FEW039 FEW050 24/18 A2995 RMK AO2 SLP138 T02440178 10244 20189 51011 $
KMIC 241653Z 36005KT 10SM FEW036 BKN090 OVC100 24/18 A2995 RMK AO2 SLP138 T02390178 $
KMIC 241553Z 04003KT 10SM FEW029 SCT035 OVC090 24/18 A2993 RMK AO2 SLP130 T02440178
KMIC 241453Z 05005KT 10SM SCT090 23/18 A2991 RMK AO2 SLP126 T02330178 51023
KMIC 241353Z 04005KT 10SM SCT085 22/17 A2990 RMK AO2 SLP122 T02220172
KMIC 241253Z 05006KT 10SM CLR 22/17 A2988 RMK AO2 SLP114 T02170167
KMIC 241153Z 05004KT 8SM CLR 19/16 A2985 RMK AO2 SLP102 T01890161 10189 20161 53009
KMIC 241053Z AUTO 00000KT 5SM BR CLR 17/16 A2983 RMK AO2 SLP096 T01670156
KMIC 240953Z AUTO 00000KT 6SM BR CLR 17/16 A2983 RMK AO2 SLP096 T01720156
KMIC 240853Z AUTO 00000KT 7SM FEW100 17/15 A2982 RMK AO2 SLP093 T01670150 50006
KMIC 240753Z AUTO 00000KT 8SM CLR 17/16 A2982 RMK AO2 SLP094 T01720156
KMIC 240653Z AUTO 00000KT 8SM CLR 18/16 A2981 RMK AO2 SLP089 T01780156
KMIC 240553Z AUTO 00000KT 8SM CLR 18/15 A2980 RMK AO2 SLP087 T01830150 10261 20183 402780144 51009
KMIC 240453Z AUTO 00000KT 10SM CLR 19/14 A2979 RMK AO2 SLP085 T01940144
KMIC 240353Z AUTO 00000KT 10SM CLR 21/14 A2979 RMK AO2 SLP084 T02110144
KMIC 240253Z 00000KT 10SM CLR 22/15 A2978 RMK AO2 SLP078 T02170150 53017
KMIC 240153Z 19004KT 10SM CLR 24/14 A2975 RMK AO2 SLP069 T02440144
KMIC 240053Z 22007KT 10SM CLR 26/15 A2974 RMK AO2 SLP067 T02560150
KMIC 232353Z 23008KT 10SM CLR 26/13 A2973 RMK AO2 SLP061 T02610133 10278 20256 56004
KMIC 232253Z 25006KT 10SM CLR 27/14 A2973 RMK AO2 SLP062 T02720139
KMIC 232153Z 24006KT 10SM CLR 27/13 A2973 RMK AO2 SLP064 T02720128